Time,TemperatureF,DewpointF,PressureIn,WindDirection,WindDirectionDegrees,WindSpeedMPH,WindSpeedGustMPH,Humidity,HourlyPrecipIn,Conditions,Clouds,dailyrainin,SoftwareType,DateUTC
2013-06-26 00:00:00,58.3,57.5,29.83,SE,138,0.0,0.0,97,0.00,,,0.00,Wunderground v.1.15,2013-06-26 07:00:00,
2013-06-26 00:10:00,58.2,57.4,29.84,SE,138,0.0,0.0,97,0.00,,,0.01,Wunderground v.1.15,2013-06-26 07:10:00,
2013-06-26 00:15:00,58.2,57.4,29.84,SE,138,0.0,0.0,97,0.00,,,0.01,Wunderground v.1.15,2013-06-26 07:15:00,
2013-06-26 00:25:00,58.2,57.4,29.83,SE,138,0.0,0.0,97,0.00,,,0.02,Wunderground v.1.15,2013-06-26 07:25:00,
2013-06-26 00:35:00,58.1,57.3,29.83,SE,138,0.0,0.0,97,0.00,,,0.02,Wunderground v.1.15,2013-06-26 07:35:00,
2013-06-26 00:40:00,58.1,57.3,29.83,SE,138,0.0,0.0,97,0.00,,,0.02,Wunderground v.1.15,2013-06-26 07:40:00,
2013-06-26 00:50:00,58.1,57.5,29.83,SE,138,0.0,0.0,98,0.00,,,0.02,Wunderground v.1.15,2013-06-26 07:50:00,
2013-06-26 01:00:00,58.2,57.6,29.84,SE,138,0.0,0.0,98,0.00,,,0.03,Wunderground v.1.15,2013-06-26 08:00:00,
2013-06-26 01:10:00,58.1,57.5,29.84,SE,138,0.0,0.0,98,0.07,,,0.04,Wunderground v.1.15,2013-06-26 08:10:00,
2013-06-26 01:15:00,58.1,57.5,29.84,SE,138,0.0,0.0,98,0.04,,,0.05,Wunderground v.1.15,2013-06-26 08:15:00,
2013-06-26 01:25:00,58.2,57.6,29.84,SE,138,0.0,0.0,98,0.10,,,0.06,Wunderground v.1.15,2013-06-26 08:25:00,
2013-06-26 01:35:00,58.1,57.5,29.84,SE,138,0.0,0.0,98,0.05,,,0.07,Wunderground v.1.15,2013-06-26 08:35:00,
2013-06-26 01:45:00,58.1,57.5,29.84,SE,138,0.0,0.0,98,0.05,,,0.07,Wunderground v.1.15,2013-06-26 08:45:00,
2013-06-26 01:55:00,58.1,57.5,29.84,SE,131,0.0,0.0,98,0.00,,,0.07,Wunderground v.1.15,2013-06-26 08:55:00,
2013-06-26 02:00:00,58.2,57.6,29.84,SE,131,0.0,0.0,98,0.00,,,0.07,Wunderground v.1.15,2013-06-26 09:00:00,
2013-06-26 02:10:00,58.1,57.5,29.84,SE,131,0.0,0.0,98,0.00,,,0.07,Wunderground v.1.15,2013-06-26 09:10:00,
2013-06-26 02:15:00,58.2,57.6,29.84,SE,131,0.0,0.0,98,0.00,,,0.07,Wunderground v.1.15,2013-06-26 09:15:00,
2013-06-26 02:25:00,58.2,57.6,29.84,SE,131,0.0,0.0,98,0.00,,,0.07,Wunderground v.1.15,2013-06-26 09:25:00,
2013-06-26 02:35:00,58.2,57.6,29.84,SE,131,0.0,0.0,98,0.00,,,0.07,Wunderground v.1.15,2013-06-26 09:35:00,
2013-06-26 02:45:00,58.1,57.5,29.85,SE,131,0.0,0.0,98,0.00,,,0.07,Wunderground v.1.15,2013-06-26 09:45:00,
2013-06-26 02:55:00,58.2,57.6,29.85,SE,131,0.0,0.0,98,0.00,,,0.07,Wunderground v.1.15,2013-06-26 09:55:00,
2013-06-26 03:00:00,58.2,57.6,29.85,SE,131,0.0,0.0,98,0.00,,,0.08,Wunderground v.1.15,2013-06-26 10:00:00,
2013-06-26 03:10:00,58.2,57.6,29.85,SE,131,0.0,0.0,98,0.00,,,0.08,Wunderground v.1.15,2013-06-26 10:10:00,
2013-06-26 03:15:00,58.2,57.6,29.85,SE,131,0.0,0.0,98,0.00,,,0.08,Wunderground v.1.15,2013-06-26 10:15:00,
2013-06-26 03:25:00,58.2,57.6,29.85,SE,131,0.0,0.0,98,0.00,,,0.08,Wunderground v.1.15,2013-06-26 10:25:00,
2013-06-26 03:35:00,58.1,57.5,29.85,SE,131,0.0,0.0,98,0.00,,,0.08,Wunderground v.1.15,2013-06-26 10:35:00,
2013-06-26 03:45:00,58.0,57.4,29.86,SE,131,0.0,0.0,98,0.00,,,0.08,Wunderground v.1.15,2013-06-26 10:45:00,
2013-06-26 03:55:00,58.0,57.4,29.86,SE,131,0.0,0.0,98,0.00,,,0.08,Wunderground v.1.15,2013-06-26 10:55:00,
2013-06-26 04:05:00,58.0,57.4,29.86,SE,131,0.0,0.0,98,0.00,,,0.08,Wunderground v.1.15,2013-06-26 11:05:00,
2013-06-26 04:15:00,57.9,57.3,29.86,SE,131,0.0,0.0,98,0.00,,,0.08,Wunderground v.1.15,2013-06-26 11:15:00,
2013-06-26 04:25:00,58.0,57.4,29.86,SE,131,0.0,0.0,98,0.00,,,0.08,Wunderground v.1.15,2013-06-26 11:25:00,
2013-06-26 04:35:00,57.9,57.3,29.86,SE,131,0.0,0.0,98,0.00,,,0.08,Wunderground v.1.15,2013-06-26 11:35:00,
2013-06-26 04:45:00,57.8,57.2,29.86,SE,131,0.0,0.0,98,0.00,,,0.08,Wunderground v.1.15,2013-06-26 11:45:00,
2013-06-26 04:55:00,57.8,57.2,29.87,SE,131,0.0,0.0,98,0.00,,,0.08,Wunderground v.1.15,2013-06-26 11:55:00,
2013-06-26 05:00:00,57.8,57.2,29.87,SE,131,0.0,0.0,98,0.00,,,0.08,Wunderground v.1.15,2013-06-26 12:00:00,
2013-06-26 05:10:00,57.9,57.6,29.87,SE,131,0.0,0.0,99,0.00,,,0.08,Wunderground v.1.15,2013-06-26 12:10:00,
2013-06-26 05:15:00,58.0,57.7,29.88,SE,131,0.0,0.0,99,0.00,,,0.08,Wunderground v.1.15,2013-06-26 12:15:00,
2013-06-26 05:25:00,58.0,57.7,29.87,SE,131,0.0,0.0,99,0.00,,,0.08,Wunderground v.1.15,2013-06-26 12:25:00,
2013-06-26 05:35:00,57.9,57.3,29.88,SE,131,0.0,0.0,98,0.00,,,0.08,Wunderground v.1.15,2013-06-26 12:35:00,
2013-06-26 05:45:00,57.8,57.2,29.88,SE,131,0.0,0.0,98,0.00,,,0.08,Wunderground v.1.15,2013-06-26 12:45:00,
2013-06-26 05:55:00,57.8,57.5,29.88,SE,131,0.0,2.0,99,0.00,,,0.08,Wunderground v.1.15,2013-06-26 12:55:00,
2013-06-26 06:00:00,57.8,57.5,29.89,SE,132,1.0,3.0,99,0.00,,,0.08,Wunderground v.1.15,2013-06-26 13:00:00,
2013-06-26 06:10:00,57.8,57.5,29.88,SE,125,1.0,1.0,99,0.00,,,0.08,Wunderground v.1.15,2013-06-26 13:10:00,
2013-06-26 06:15:00,57.8,57.5,29.88,SE,125,0.0,1.0,99,0.00,,,0.08,Wunderground v.1.15,2013-06-26 13:15:00,
2013-06-26 06:25:00,57.8,57.5,29.89,SE,125,0.0,0.0,99,0.00,,,0.08,Wunderground v.1.15,2013-06-26 13:25:00,
2013-06-26 06:35:00,57.8,57.5,29.89,SE,125,0.0,0.0,99,0.00,,,0.08,Wunderground v.1.15,2013-06-26 13:35:00,
2013-06-26 06:45:00,57.9,57.6,29.89,SE,125,0.0,0.0,99,0.00,,,0.08,Wunderground v.1.15,2013-06-26 13:45:00,
2013-06-26 06:55:00,58.0,57.7,29.89,SE,125,0.0,0.0,99,0.00,,,0.08,Wunderground v.1.15,2013-06-26 13:55:00,
2013-06-26 07:00:00,58.2,57.9,29.89,SE,125,0.0,0.0,99,0.00,,,0.08,Wunderground v.1.15,2013-06-26 14:00:00,
2013-06-26 07:10:00,58.4,58.1,29.90,SE,125,0.0,0.0,99,0.00,,,0.08,Wunderground v.1.15,2013-06-26 14:10:00,
2013-06-26 07:20:00,58.6,58.3,29.90,SE,125,0.0,0.0,99,0.00,,,0.08,Wunderground v.1.15,2013-06-26 14:20:00,
2013-06-26 07:25:00,58.8,58.5,29.90,SE,125,0.0,0.0,99,0.00,,,0.08,Wunderground v.1.15,2013-06-26 14:25:00,
2013-06-26 07:35:00,58.9,58.6,29.90,SE,125,0.0,0.0,99,0.00,,,0.08,Wunderground v.1.15,2013-06-26 14:35:00,
2013-06-26 07:45:00,59.2,58.9,29.91,SE,125,0.0,0.0,99,0.00,,,0.08,Wunderground v.1.15,2013-06-26 14:45:00,
2013-06-26 07:55:00,59.4,59.1,29.91,SE,125,0.0,0.0,99,0.00,,,0.08,Wunderground v.1.15,2013-06-26 14:55:00,
2013-06-26 08:00:00,59.5,59.2,29.91,SE,125,0.0,0.0,99,0.00,,,0.08,Wunderground v.1.15,2013-06-26 15:00:00,
2013-06-26 08:10:00,59.9,59.6,29.92,SE,125,0.0,0.0,99,0.00,,,0.08,Wunderground v.1.15,2013-06-26 15:10:00,
2013-06-26 08:15:00,60.1,59.8,29.91,SE,125,0.0,0.0,99,0.00,,,0.08,Wunderground v.1.15,2013-06-26 15:15:00,
2013-06-26 08:25:00,60.5,60.2,29.92,SE,125,0.0,0.0,99,0.00,,,0.08,Wunderground v.1.15,2013-06-26 15:25:00,
2013-06-26 08:35:00,60.8,60.2,29.92,SE,132,0.0,0.0,98,0.00,,,0.08,Wunderground v.1.15,2013-06-26 15:35:00,
2013-06-26 08:45:00,61.1,60.5,29.92,SE,132,1.0,3.0,98,0.00,,,0.08,Wunderground v.1.15,2013-06-26 15:45:00,
2013-06-26 08:55:00,61.4,60.8,29.92,SE,130,1.0,1.0,98,0.00,,,0.08,Wunderground v.1.15,2013-06-26 15:55:00,
2013-06-26 09:00:00,61.8,61.2,29.92,SE,137,1.0,1.0,98,0.00,,,0.08,Wunderground v.1.15,2013-06-26 16:00:00,
2013-06-26 09:10:00,62.2,61.0,29.92,ESE,122,2.0,5.0,96,0.00,,,0.08,Wunderground v.1.15,2013-06-26 16:10:00,
2013-06-26 09:15:00,62.5,61.0,29.92,SE,134,2.0,2.0,95,0.00,,,0.08,Wunderground v.1.15,2013-06-26 16:15:00,
2013-06-26 09:25:00,62.8,60.7,29.92,SE,133,2.0,2.0,93,0.00,,,0.08,Wunderground v.1.15,2013-06-26 16:25:00,
2013-06-26 09:35:00,63.1,61.3,29.92,SE,135,1.0,1.0,94,0.00,,,0.08,Wunderground v.1.15,2013-06-26 16:35:00,
2013-06-26 09:45:00,63.4,61.6,29.92,SE,126,0.0,0.0,94,0.00,,,0.08,Wunderground v.1.15,2013-06-26 16:45:00,
2013-06-26 09:55:00,63.7,61.3,29.93,ESE,117,1.0,3.0,92,0.00,,,0.08,Wunderground v.1.15,2013-06-26 16:55:00,
2013-06-26 10:00:00,63.9,60.9,29.93,SE,129,2.0,3.0,90,0.00,,,0.08,Wunderground v.1.15,2013-06-26 17:00:00,
2013-06-26 10:10:00,64.4,62.0,29.93,SE,142,2.0,2.0,92,0.00,,,0.08,Wunderground v.1.15,2013-06-26 17:10:00,
2013-06-26 10:20:00,65.3,61.0,29.94,SE,143,2.0,2.0,86,0.00,,,0.08,Wunderground v.1.15,2013-06-26 17:20:00,
2013-06-26 10:30:00,65.5,61.5,29.94,SE,133,3.0,3.0,87,0.00,,,0.08,Wunderground v.1.15,2013-06-26 17:30:00,
2013-06-26 10:40:00,65.5,61.2,29.93,ESE,117,1.0,1.0,86,0.00,,,0.08,Wunderground v.1.15,2013-06-26 17:40:00,
2013-06-26 10:50:00,66.1,61.5,29.94,SE,138,2.0,2.0,85,0.00,,,0.08,Wunderground v.1.15,2013-06-26 17:50:00,
2013-06-26 11:00:00,66.7,61.0,29.94,SE,125,2.0,3.0,82,0.00,,,0.08,Wunderground v.1.15,2013-06-26 18:00:00,
2013-06-26 11:10:00,67.2,62.2,29.94,SE,138,2.0,3.0,84,0.00,,,0.08,Wunderground v.1.15,2013-06-26 18:10:00,
2013-06-26 11:15:00,67.3,60.9,29.94,ESE,111,2.0,3.0,80,0.00,,,0.08,Wunderground v.1.15,2013-06-26 18:15:00,
2013-06-26 11:25:00,67.9,61.1,29.94,ENE,76,3.0,3.0,79,0.00,,,0.08,Wunderground v.1.15,2013-06-26 18:25:00,
2013-06-26 11:35:00,68.3,60.4,29.94,SE,134,2.0,4.0,76,0.00,,,0.08,Wunderground v.1.15,2013-06-26 18:35:00,
2013-06-26 11:45:00,68.6,60.4,29.94,SE,130,2.0,5.0,75,0.00,,,0.08,Wunderground v.1.15,2013-06-26 18:45:00,
2013-06-26 11:50:00,68.8,60.9,29.94,SE,130,3.0,5.0,76,0.00,,,0.08,Wunderground v.1.15,2013-06-26 18:50:00,
2013-06-26 12:00:00,68.9,59.9,29.94,SE,145,2.0,2.0,73,0.00,,,0.08,Wunderground v.1.15,2013-06-26 19:00:00,
2013-06-26 12:10:00,69.5,62.0,29.94,East,83,0.0,0.0,77,0.00,,,0.08,Wunderground v.1.15,2013-06-26 19:10:00,
2013-06-26 12:20:00,69.8,60.8,29.95,ESE,119,1.0,1.0,73,0.00,,,0.08,Wunderground v.1.15,2013-06-26 19:20:00,
2013-06-26 12:30:00,69.9,60.1,29.95,SE,131,2.0,3.0,71,0.00,,,0.08,Wunderground v.1.15,2013-06-26 19:30:00,
2013-06-26 12:40:00,70.0,60.6,29.96,NNW,336,1.0,1.0,72,0.00,,,0.08,Wunderground v.1.15,2013-06-26 19:40:00,
2013-06-26 12:50:00,70.2,59.1,29.96,South,188,0.0,0.0,68,0.00,,,0.08,Wunderground v.1.15,2013-06-26 19:50:00,
2013-06-26 13:00:00,70.5,59.0,29.96,SE,134,0.0,0.0,67,0.00,,,0.08,Wunderground v.1.15,2013-06-26 20:00:00,
2013-06-26 13:10:00,70.5,60.2,29.96,SSE,153,0.0,2.0,70,0.00,,,0.08,Wunderground v.1.15,2013-06-26 20:10:00,
2013-06-26 13:15:00,70.6,60.3,29.96,SE,124,0.0,3.0,70,0.00,,,0.08,Wunderground v.1.15,2013-06-26 20:15:00,
2013-06-26 13:25:00,70.9,59.4,29.96,South,186,1.0,2.0,67,0.00,,,0.08,Wunderground v.1.15,2013-06-26 20:25:00,
2013-06-26 13:30:00,71.1,59.6,29.96,ESE,123,1.0,1.0,67,0.00,,,0.08,Wunderground v.1.15,2013-06-26 20:30:00,
2013-06-26 13:40:00,70.8,58.4,29.97,ENE,74,0.0,1.0,65,0.00,,,0.08,Wunderground v.1.15,2013-06-26 20:40:00,
2013-06-26 13:50:00,70.8,59.7,29.96,SE,144,1.0,1.0,68,0.00,,,0.08,Wunderground v.1.15,2013-06-26 20:50:00,
2013-06-26 13:55:00,70.9,59.4,29.97,ESE,110,1.0,2.0,67,0.00,,,0.08,Wunderground v.1.15,2013-06-26 20:55:00,
2013-06-26 14:00:00,71.0,59.5,29.97,ESE,109,1.0,1.0,67,0.00,,,0.08,Wunderground v.1.15,2013-06-26 21:00:00,
2013-06-26 14:10:00,71.2,58.4,29.97,SSW,200,1.0,3.0,64,0.00,,,0.08,Wunderground v.1.15,2013-06-26 21:10:00,
2013-06-26 14:20:00,71.1,60.0,29.97,SE,132,1.0,1.0,68,0.00,,,0.08,Wunderground v.1.15,2013-06-26 21:20:00,
2013-06-26 14:30:00,71.2,58.4,29.97,East,79,0.0,1.0,64,0.00,,,0.08,Wunderground v.1.15,2013-06-26 21:30:00,
2013-06-26 14:40:00,71.6,60.9,29.97,SE,138,0.0,0.0,69,0.00,,,0.08,Wunderground v.1.15,2013-06-26 21:40:00,
2013-06-26 14:50:00,71.6,60.5,29.97,SE,139,1.0,1.0,68,0.00,,,0.08,Wunderground v.1.15,2013-06-26 21:50:00,
2013-06-26 15:00:00,71.1,60.4,29.97,SE,133,1.0,1.0,69,0.00,,,0.08,Wunderground v.1.15,2013-06-26 22:00:00,
2013-06-26 15:10:00,70.6,62.3,29.97,SE,143,0.0,0.0,75,0.00,,,0.08,Wunderground v.1.15,2013-06-26 22:10:00,
2013-06-26 15:20:00,70.2,61.9,29.97,SE,143,0.0,0.0,75,0.00,,,0.08,Wunderground v.1.15,2013-06-26 22:20:00,
2013-06-26 15:30:00,70.6,60.3,29.97,SSE,158,0.0,0.0,70,0.00,,,0.08,Wunderground v.1.15,2013-06-26 22:30:00,
2013-06-26 15:35:00,70.8,61.3,29.97,SE,130,1.0,1.0,72,0.00,,,0.08,Wunderground v.1.15,2013-06-26 22:35:00,
2013-06-26 15:45:00,71.3,61.0,29.97,SE,135,2.0,2.0,70,0.00,,,0.08,Wunderground v.1.15,2013-06-26 22:45:00,
2013-06-26 15:55:00,71.6,60.5,29.97,SE,140,1.0,2.0,68,0.00,,,0.08,Wunderground v.1.15,2013-06-26 22:55:00,
2013-06-26 16:00:00,71.9,59.9,29.97,SE,141,1.0,1.0,66,0.00,,,0.08,Wunderground v.1.15,2013-06-26 23:00:00,
2013-06-26 16:10:00,72.6,59.7,29.97,SE,128,1.0,2.0,64,0.00,,,0.08,Wunderground v.1.15,2013-06-26 23:10:00,
2013-06-26 16:20:00,72.8,60.3,29.97,ESE,119,1.0,1.0,65,0.00,,,0.08,Wunderground v.1.15,2013-06-26 23:20:00,
2013-06-26 16:30:00,72.5,59.6,29.97,SSE,152,0.0,0.0,64,0.00,,,0.08,Wunderground v.1.15,2013-06-26 23:30:00,
2013-06-26 16:40:00,72.5,60.1,29.97,SE,128,0.0,0.0,65,0.00,,,0.08,Wunderground v.1.15,2013-06-26 23:40:00,
2013-06-26 16:50:00,72.9,59.6,29.97,South,169,1.0,1.0,63,0.00,,,0.08,Wunderground v.1.15,2013-06-26 23:50:00,
2013-06-26 16:55:00,73.1,59.3,29.97,South,169,0.0,1.0,62,0.00,,,0.08,Wunderground v.1.15,2013-06-26 23:55:00,
2013-06-26 17:00:00,73.2,60.7,29.97,SE,126,0.0,0.0,65,0.00,,,0.08,Wunderground v.1.15,2013-06-27 00:00:00,
2013-06-26 17:10:00,73.3,58.6,29.97,East,95,0.0,2.0,60,0.00,,,0.08,Wunderground v.1.15,2013-06-27 00:10:00,
2013-06-26 17:15:00,73.4,59.1,29.97,ESE,116,0.0,0.0,61,0.00,,,0.08,Wunderground v.1.15,2013-06-27 00:15:00,
2013-06-26 17:25:00,73.0,59.2,29.97,SSE,159,0.0,0.0,62,0.00,,,0.08,Wunderground v.1.15,2013-06-27 00:25:00,
2013-06-26 17:35:00,72.8,59.9,29.97,SE,141,0.0,0.0,64,0.00,,,0.08,Wunderground v.1.15,2013-06-27 00:35:00,
2013-06-26 17:45:00,72.2,61.5,29.97,SE,141,0.0,0.0,69,0.00,,,0.08,Wunderground v.1.15,2013-06-27 00:45:00,
2013-06-26 17:55:00,71.5,62.8,29.97,SE,141,0.0,0.0,74,0.00,,,0.08,Wunderground v.1.15,2013-06-27 00:55:00,
2013-06-26 18:00:00,71.1,62.4,29.97,SE,141,0.0,0.0,74,0.00,,,0.08,Wunderground v.1.15,2013-06-27 01:00:00,
2013-06-26 18:10:00,71.2,59.3,29.97,SE,141,0.0,0.0,66,0.00,,,0.08,Wunderground v.1.15,2013-06-27 01:10:00,
2013-06-26 18:20:00,71.1,61.2,29.97,ESE,112,0.0,0.0,71,0.00,,,0.08,Wunderground v.1.15,2013-06-27 01:20:00,
2013-06-26 18:30:00,71.2,59.7,29.97,SE,130,1.0,1.0,67,0.00,,,0.08,Wunderground v.1.15,2013-06-27 01:30:00,
2013-06-26 18:35:00,71.1,60.0,29.97,SE,127,1.0,1.0,68,0.00,,,0.08,Wunderground v.1.15,2013-06-27 01:35:00,
2013-06-26 18:45:00,71.1,60.4,29.97,SE,128,1.0,1.0,69,0.00,,,0.08,Wunderground v.1.15,2013-06-27 01:45:00,
2013-06-26 18:55:00,70.6,61.9,29.97,SE,140,0.0,2.0,74,0.00,,,0.08,Wunderground v.1.15,2013-06-27 01:55:00,
2013-06-26 19:00:00,70.4,62.5,29.97,SE,138,0.0,3.0,76,0.00,,,0.08,Wunderground v.1.15,2013-06-27 02:00:00,
2013-06-26 19:10:00,69.8,61.5,29.97,SE,143,1.0,1.0,75,0.00,,,0.08,Wunderground v.1.15,2013-06-27 02:10:00,
2013-06-26 19:20:00,69.0,61.5,29.97,SE,143,0.0,0.0,77,0.00,,,0.08,Wunderground v.1.15,2013-06-27 02:20:00,
2013-06-26 19:30:00,68.6,61.5,29.97,SE,142,0.0,0.0,78,0.00,,,0.08,Wunderground v.1.15,2013-06-27 02:30:00,
2013-06-26 19:40:00,68.2,61.4,29.97,SE,143,0.0,0.0,79,0.00,,,0.08,Wunderground v.1.15,2013-06-27 02:40:00,
2013-06-26 19:50:00,67.7,60.2,29.97,SE,142,0.0,0.0,77,0.00,,,0.08,Wunderground v.1.15,2013-06-27 02:50:00,
2013-06-26 20:00:00,67.3,60.2,29.97,SE,142,0.0,0.0,78,0.00,,,0.08,Wunderground v.1.15,2013-06-27 03:00:00,
2013-06-26 20:10:00,67.1,61.1,29.97,SE,142,0.0,0.0,81,0.00,,,0.08,Wunderground v.1.15,2013-06-27 03:10:00,
2013-06-26 20:20:00,66.8,60.1,29.97,SE,142,0.0,0.0,79,0.00,,,0.08,Wunderground v.1.15,2013-06-27 03:20:00,
2013-06-26 20:30:00,66.4,60.4,29.97,SE,142,0.0,0.0,81,0.00,,,0.08,Wunderground v.1.15,2013-06-27 03:30:00,
2013-06-26 20:40:00,66.0,60.0,29.97,SE,142,0.0,0.0,81,0.00,,,0.08,Wunderground v.1.15,2013-06-27 03:40:00,
2013-06-26 20:50:00,65.8,59.8,29.97,SE,142,0.0,0.0,81,0.00,,,0.08,Wunderground v.1.15,2013-06-27 03:50:00,
2013-06-26 21:00:00,65.3,60.0,29.97,SE,142,0.0,0.0,83,0.00,,,0.08,Wunderground v.1.15,2013-06-27 04:00:00,
2013-06-26 21:05:00,65.2,60.2,29.97,SE,142,0.0,0.0,84,0.00,,,0.08,Wunderground v.1.15,2013-06-27 04:05:00,
2013-06-26 21:10:00,65.1,60.5,29.97,SE,142,0.0,0.0,85,0.00,,,0.08,Wunderground v.1.15,2013-06-27 04:10:00,
2013-06-26 21:15:00,65.1,60.5,29.97,SE,142,0.0,0.0,85,0.00,,,0.08,Wunderground v.1.15,2013-06-27 04:15:00,
2013-06-26 21:20:00,64.9,60.6,29.97,SE,142,0.0,0.0,86,0.00,,,0.08,Wunderground v.1.15,2013-06-27 04:20:00,
2013-06-26 21:25:00,64.8,60.8,29.97,SE,142,0.0,0.0,87,0.00,,,0.08,Wunderground v.1.15,2013-06-27 04:25:00,
2013-06-26 21:30:00,64.8,61.2,29.98,SE,142,0.0,0.0,88,0.00,,,0.08,Wunderground v.1.15,2013-06-27 04:30:00,
2013-06-26 21:40:00,64.7,61.4,29.98,SE,142,0.0,0.0,89,0.00,,,0.08,Wunderground v.1.15,2013-06-27 04:40:00,
2013-06-26 21:45:00,64.6,61.3,29.98,SE,142,0.0,0.0,89,0.00,,,0.08,Wunderground v.1.15,2013-06-27 04:45:00,
2013-06-26 21:55:00,64.4,61.4,29.98,SE,142,0.0,0.0,90,0.00,,,0.08,Wunderground v.1.15,2013-06-27 04:55:00,
2013-06-26 22:00:00,64.3,61.3,29.98,SE,142,0.0,0.0,90,0.00,,,0.08,Wunderground v.1.15,2013-06-27 05:00:00,
2013-06-26 22:10:00,64.0,61.3,29.98,SE,142,0.0,0.0,91,0.00,,,0.08,Wunderground v.1.15,2013-06-27 05:10:00,
2013-06-26 22:20:00,63.9,61.5,29.98,SE,142,0.0,0.0,92,0.00,,,0.08,Wunderground v.1.15,2013-06-27 05:20:00,
2013-06-26 22:25:00,63.8,61.4,29.99,SE,142,0.0,0.0,92,0.00,,,0.08,Wunderground v.1.15,2013-06-27 05:25:00,
2013-06-26 22:35:00,63.6,61.2,29.98,SE,142,0.0,0.0,92,0.00,,,0.08,Wunderground v.1.15,2013-06-27 05:35:00,
2013-06-26 22:45:00,63.5,61.1,29.98,SE,142,0.0,0.0,92,0.00,,,0.08,Wunderground v.1.15,2013-06-27 05:45:00,
2013-06-26 22:55:00,63.3,61.2,29.98,SE,142,0.0,0.0,93,0.00,,,0.08,Wunderground v.1.15,2013-06-27 05:55:00,
2013-06-26 23:05:00,63.2,61.1,29.98,SE,142,0.0,0.0,93,0.00,,,0.08,Wunderground v.1.15,2013-06-27 06:05:00,
2013-06-26 23:15:00,63.0,60.9,29.98,SE,142,0.0,0.0,93,0.00,,,0.08,Wunderground v.1.15,2013-06-27 06:15:00,
2013-06-26 23:25:00,62.9,61.1,29.98,SE,142,0.0,0.0,94,0.00,,,0.08,Wunderground v.1.15,2013-06-27 06:25:00,
2013-06-26 23:35:00,62.7,60.9,29.99,SE,142,0.0,0.0,94,0.00,,,0.08,Wunderground v.1.15,2013-06-27 06:35:00,
2013-06-26 23:45:00,62.4,60.7,29.98,SE,142,0.0,0.0,94,0.00,,,0.08,Wunderground v.1.15,2013-06-27 06:45:00,
2013-06-26 23:55:00,62.1,60.7,29.99,SE,142,0.0,0.0,95,0.00,,,0.08,Wunderground v.1.15,2013-06-27 06:55:00,